Time,TemperatureF,DewpointF,PressureIn,WindDirection,WindDirectionDegrees,WindSpeedMPH,WindSpeedGustMPH,Humidity,HourlyPrecipIn,Conditions,Clouds,dailyrainin,SoftwareType,DateUTC
2013-01-11 00:13:00,40.5,26.0,30.53,NNE,26,2.0,4.0,56,0.00,,,0.00,weatherlink.com 1.10,2013-01-11 05:13:00,
2013-01-11 00:31:00,40.3,26.0,30.54,NE,51,5.0,5.0,57,0.00,,,0.00,weatherlink.com 1.10,2013-01-11 05:31:00,
2013-01-11 00:48:00,40.1,26.0,30.53,ENE,77,2.0,5.0,58,0.00,,,0.00,weatherlink.com 1.10,2013-01-11 05:48:00,
2013-01-11 01:05:00,39.9,26.0,30.52,North,349,2.0,6.0,58,0.00,,,0.00,weatherlink.com 1.10,2013-01-11 06:05:00,
2013-01-11 01:22:00,39.8,26.0,30.53,NNE,26,2.0,5.0,58,0.00,,,0.00,weatherlink.com 1.10,2013-01-11 06:22:00,
2013-01-11 01:40:00,39.6,27.0,30.52,NE,50,1.0,6.0,60,0.00,,,0.00,weatherlink.com 1.10,2013-01-11 06:40:00,
2013-01-11 01:58:00,39.6,27.0,30.51,NNW,328,0.0,4.0,60,0.00,,,0.00,weatherlink.com 1.10,2013-01-11 06:58:00,
2013-01-11 02:15:00,39.3,26.0,30.51,NNE,30,1.0,5.0,59,0.00,,,0.00,weatherlink.com 1.10,2013-01-11 07:15:00,
2013-01-11 02:31:00,39.0,26.0,30.51,NE,53,3.0,3.0,61,0.00,,,0.00,weatherlink.com 1.10,2013-01-11 07:31:00,
2013-01-11 02:49:00,38.7,27.0,30.50,NE,50,1.0,4.0,62,0.00,,,0.00,weatherlink.com 1.10,2013-01-11 07:49:00,
2013-01-11 03:07:00,38.4,27.0,30.50,NNW,335,0.0,3.0,63,0.00,,,0.00,weatherlink.com 1.10,2013-01-11 08:07:00,
2013-01-11 03:23:00,38.1,27.0,30.49,NE,53,1.0,3.0,65,0.00,,,0.00,weatherlink.com 1.10,2013-01-11 08:23:00,
2013-01-11 03:41:00,38.1,28.0,30.47,NE,51,1.0,5.0,66,0.00,,,0.00,weatherlink.com 1.10,2013-01-11 08:41:00,
2013-01-11 03:58:00,38.1,28.0,30.48,NNW,343,1.0,3.0,66,0.00,,,0.00,weatherlink.com 1.10,2013-01-11 08:58:00,
2013-01-11 04:16:00,38.2,27.0,30.47,NNE,32,2.0,4.0,65,0.00,,,0.00,weatherlink.com 1.10,2013-01-11 09:16:00,
2013-01-11 04:32:00,38.3,27.0,30.45,East,89,2.0,8.0,65,0.00,,,0.00,weatherlink.com 1.10,2013-01-11 09:32:00,
2013-01-11 04:49:00,38.2,27.0,30.45,East,85,5.0,9.0,65,0.00,,,0.00,weatherlink.com 1.10,2013-01-11 09:49:00,
2013-01-11 05:07:00,38.0,27.0,30.46,NE,50,3.0,7.0,65,0.00,,,0.00,weatherlink.com 1.10,2013-01-11 10:07:00,
2013-01-11 05:24:00,37.9,27.0,30.45,NE,56,3.0,5.0,65,0.00,,,0.00,weatherlink.com 1.10,2013-01-11 10:24:00,
2013-01-11 05:41:00,37.9,27.0,30.47,NE,46,1.0,3.0,65,0.00,,,0.00,weatherlink.com 1.10,2013-01-11 10:41:00,
2013-01-11 05:59:00,37.8,27.0,30.47,East,91,0.0,2.0,66,0.00,,,0.00,weatherlink.com 1.10,2013-01-11 10:59:00,
2013-01-11 06:16:00,37.5,27.0,30.47,ESE,123,0.0,1.0,66,0.00,,,0.00,weatherlink.com 1.10,2013-01-11 11:16:00,
2013-01-11 06:33:00,38.0,27.0,30.47,East,93,2.0,5.0,64,0.00,,,0.00,weatherlink.com 1.10,2013-01-11 11:33:00,
2013-01-11 06:50:00,38.0,27.0,30.48,ENE,68,1.0,2.0,64,0.00,,,0.00,weatherlink.com 1.10,2013-01-11 11:50:00,
2013-01-11 07:08:00,37.8,27.0,30.47,ESE,105,0.0,3.0,64,0.00,,,0.00,weatherlink.com 1.10,2013-01-11 12:08:00,
2013-01-11 07:25:00,38.0,27.0,30.48,East,101,1.0,3.0,64,0.00,,,0.00,weatherlink.com 1.10,2013-01-11 12:25:00,
2013-01-11 07:42:00,38.0,27.0,30.48,East,91,2.0,3.0,65,0.00,,,0.00,weatherlink.com 1.10,2013-01-11 12:42:00,
2013-01-11 07:59:00,38.4,27.0,30.48,East,94,1.0,6.0,64,0.00,,,0.00,weatherlink.com 1.10,2013-01-11 12:59:00,
2013-01-11 08:17:00,38.4,27.0,30.47,East,87,3.0,7.0,65,0.00,,,0.00,weatherlink.com 1.10,2013-01-11 13:17:00,
2013-01-11 08:33:00,38.6,28.0,30.46,East,97,3.0,4.0,67,0.00,,,0.00,weatherlink.com 1.10,2013-01-11 13:33:00,
2013-01-11 08:52:00,39.1,29.0,30.45,ENE,72,2.0,6.0,68,0.00,,,0.00,weatherlink.com 1.10,2013-01-11 13:52:00,
2013-01-11 09:08:00,39.6,30.0,30.45,ENE,77,2.0,6.0,69,0.00,,,0.00,weatherlink.com 1.10,2013-01-11 14:08:00,
2013-01-11 09:26:00,40.0,30.0,30.47,ESE,121,1.0,3.0,68,0.00,,,0.00,weatherlink.com 1.10,2013-01-11 14:26:00,
2013-01-11 09:43:00,40.5,31.0,30.46,ENE,71,3.0,5.0,68,0.00,,,0.00,weatherlink.com 1.10,2013-01-11 14:43:00,
2013-01-11 10:01:00,41.0,31.0,30.45,East,82,2.0,5.0,68,0.00,,,0.00,weatherlink.com 1.10,2013-01-11 15:01:00,
2013-01-11 10:17:00,41.3,31.0,30.44,ESE,103,2.0,6.0,67,0.00,,,0.00,weatherlink.com 1.10,2013-01-11 15:17:00,
2013-01-11 10:35:00,41.8,32.0,30.44,SE,145,3.0,3.0,68,0.00,,,0.00,weatherlink.com 1.10,2013-01-11 15:35:00,
2013-01-11 10:51:00,42.0,32.0,30.43,ESE,110,4.0,6.0,69,0.00,,,0.00,weatherlink.com 1.10,2013-01-11 15:51:00,
2013-01-11 11:09:00,42.0,33.0,30.41,East,93,3.0,9.0,70,0.00,,,0.00,weatherlink.com 1.10,2013-01-11 16:09:00,
2013-01-11 11:26:00,42.2,33.0,30.40,East,93,3.0,5.0,71,0.00,,,0.00,weatherlink.com 1.10,2013-01-11 16:26:00,
2013-01-11 11:44:00,42.6,34.0,30.38,ESE,117,8.0,9.0,72,0.00,,,0.00,weatherlink.com 1.10,2013-01-11 16:44:00,
2013-01-11 12:01:00,43.1,34.0,30.36,East,79,3.0,6.0,71,0.00,,,0.00,weatherlink.com 1.10,2013-01-11 17:01:00,
2013-01-11 12:18:00,43.1,35.0,30.35,East,99,2.0,8.0,72,0.00,,,0.00,weatherlink.com 1.10,2013-01-11 17:18:00,
2013-01-11 12:36:00,43.6,35.0,30.35,ESE,114,2.0,5.0,73,0.00,,,0.00,weatherlink.com 1.10,2013-01-11 17:36:00,
2013-01-11 12:52:00,44.2,37.0,30.34,ESE,103,3.0,8.0,75,0.00,,,0.00,weatherlink.com 1.10,2013-01-11 17:52:00,
2013-01-11 13:10:00,44.2,37.0,30.34,East,92,3.0,6.0,77,0.00,,,0.00,weatherlink.com 1.10,2013-01-11 18:10:00,
2013-01-11 13:28:00,44.1,37.0,30.34,South,191,2.0,7.0,77,0.00,,,0.00,weatherlink.com 1.10,2013-01-11 18:28:00,
2013-01-11 13:44:00,44.4,38.0,30.33,SE,132,2.0,6.0,77,0.00,,,0.00,weatherlink.com 1.10,2013-01-11 18:44:00,
2013-01-11 14:02:00,44.7,38.0,30.32,ESE,122,3.0,5.0,77,0.00,,,0.00,weatherlink.com 1.10,2013-01-11 19:02:00,
2013-01-11 14:19:00,44.9,38.0,30.32,ESE,122,2.0,6.0,77,0.00,,,0.00,weatherlink.com 1.10,2013-01-11 19:19:00,
2013-01-11 14:36:00,45.3,39.0,30.31,ESE,115,4.0,7.0,77,0.00,,,0.00,weatherlink.com 1.10,2013-01-11 19:36:00,
2013-01-11 14:53:00,45.3,39.0,30.30,East,99,2.0,8.0,78,0.00,,,0.00,weatherlink.com 1.10,2013-01-11 19:53:00,
2013-01-11 15:11:00,45.2,40.0,30.30,ESE,122,1.0,7.0,81,0.01,,,0.01,weatherlink.com 1.10,2013-01-11 20:11:00,
2013-01-11 15:27:00,44.9,40.0,30.29,ENE,68,2.0,4.0,84,0.01,,,0.01,weatherlink.com 1.10,2013-01-11 20:27:00,
2013-01-11 15:45:00,44.9,40.0,30.28,East,79,3.0,5.0,84,0.01,,,0.01,weatherlink.com 1.10,2013-01-11 20:45:00,
2013-01-11 16:02:00,45.1,41.0,30.27,ESE,104,1.0,6.0,85,0.01,,,0.01,weatherlink.com 1.10,2013-01-11 21:02:00,
2013-01-11 16:20:00,45.3,41.0,30.27,ESE,103,1.0,3.0,86,0.00,,,0.01,weatherlink.com 1.10,2013-01-11 21:20:00,
2013-01-11 16:37:00,45.3,42.0,30.25,ESE,122,1.0,5.0,88,0.00,,,0.01,weatherlink.com 1.10,2013-01-11 21:37:00,
2013-01-11 16:54:00,45.1,42.0,30.25,SE,124,3.0,6.0,90,0.00,,,0.01,weatherlink.com 1.10,2013-01-11 21:54:00,
2013-01-11 17:12:00,45.1,43.0,30.25,East,101,2.0,4.0,92,0.01,,,0.02,weatherlink.com 1.10,2013-01-11 22:12:00,
2013-01-11 17:29:00,45.1,43.0,30.24,SE,129,2.0,5.0,93,0.01,,,0.02,weatherlink.com 1.10,2013-01-11 22:29:00,
2013-01-11 17:46:00,45.1,44.0,30.23,ESE,106,3.0,5.0,94,0.03,,,0.04,weatherlink.com 1.10,2013-01-11 22:46:00,
2013-01-11 18:03:00,45.5,44.0,30.22,SE,124,5.0,8.0,95,0.05,,,0.07,weatherlink.com 1.10,2013-01-11 23:03:00,
2013-01-11 18:21:00,45.8,45.0,30.21,SE,129,3.0,9.0,95,0.07,,,0.09,weatherlink.com 1.10,2013-01-11 23:21:00,
2013-01-11 18:37:00,45.9,45.0,30.19,SE,136,6.0,9.0,95,0.07,,,0.10,weatherlink.com 1.10,2013-01-11 23:37:00,
2013-01-11 18:55:00,45.9,45.0,30.18,SSE,150,3.0,12.0,95,0.07,,,0.13,weatherlink.com 1.10,2013-01-11 23:55:00,
2013-01-11 19:12:00,45.5,44.0,30.17,SE,131,5.0,9.0,95,0.09,,,0.17,weatherlink.com 1.10,2013-01-12 00:12:00,
2013-01-11 19:30:00,45.5,44.0,30.18,SSE,150,1.0,8.0,95,0.10,,,0.20,weatherlink.com 1.10,2013-01-12 00:30:00,
2013-01-11 19:46:00,45.7,44.0,30.19,WSW,238,1.0,3.0,95,0.16,,,0.28,weatherlink.com 1.10,2013-01-12 00:46:00,
2013-01-11 20:04:00,46.0,45.0,30.20,WSW,252,1.0,3.0,96,0.17,,,0.32,weatherlink.com 1.10,2013-01-12 01:04:00,
2013-01-11 20:22:00,45.9,45.0,30.19,East,81,1.0,1.0,95,0.16,,,0.35,weatherlink.com 1.10,2013-01-12 01:22:00,
2013-01-11 20:38:00,45.8,45.0,30.18,ESE,113,1.0,2.0,96,0.13,,,0.36,weatherlink.com 1.10,2013-01-12 01:38:00,
2013-01-11 20:56:00,45.6,45.0,30.18,SE,125,1.0,3.0,96,0.05,,,0.37,weatherlink.com 1.10,2013-01-12 01:56:00,
2013-01-11 21:13:00,45.8,45.0,30.16,ESE,113,2.0,4.0,96,0.06,,,0.40,weatherlink.com 1.10,2013-01-12 02:13:00,
2013-01-11 21:31:00,45.8,45.0,30.15,ESE,114,3.0,6.0,96,0.07,,,0.42,weatherlink.com 1.10,2013-01-12 02:31:00,
2013-01-11 21:47:00,45.7,45.0,30.15,East,88,4.0,5.0,97,0.07,,,0.44,weatherlink.com 1.10,2013-01-12 02:47:00,
2013-01-11 22:05:00,45.7,45.0,30.14,ESE,115,2.0,6.0,96,0.07,,,0.46,weatherlink.com 1.10,2013-01-12 03:05:00,
2013-01-11 22:22:00,45.7,45.0,30.13,East,87,2.0,4.0,97,0.08,,,0.49,weatherlink.com 1.10,2013-01-12 03:22:00,
2013-01-11 22:39:00,45.9,45.0,30.12,SE,141,1.0,5.0,97,0.08,,,0.50,weatherlink.com 1.10,2013-01-12 03:39:00,
2013-01-11 22:57:00,46.0,45.0,30.12,ESE,114,3.0,4.0,97,0.05,,,0.50,weatherlink.com 1.10,2013-01-12 03:57:00,
2013-01-11 23:14:00,46.3,46.0,30.11,NE,40,2.0,5.0,97,0.03,,,0.50,weatherlink.com 1.10,2013-01-12 04:14:00,
2013-01-11 23:31:00,46.6,46.0,30.10,NE,56,1.0,4.0,97,0.02,,,0.51,weatherlink.com 1.10,2013-01-12 04:31:00,
2013-01-11 23:48:00,46.7,46.0,30.09,NE,35,3.0,6.0,97,0.02,,,0.52,weatherlink.com 1.10,2013-01-12 04:48:00,